sensor_id;sensor_type;location;lat;lon;timestamp;pressure;altitude;pressure_sealevel;temperature;humidity
6942;BME280;3510;43.200;27.920;2023-07-13T00:01:48;101104.50;;;33.18;52.31
6942;BME280;3510;43.200;27.920;2023-07-13T00:04:20;101103.03;;;34.18;50.57
6942;BME280;3510;43.200;27.920;2023-07-13T00:09:58;101101.50;;;33.88;50.74
6942;BME280;3510;43.200;27.920;2023-07-13T00:12:29;101099.81;;;33.83;50.99
6942;BME280;3510;43.200;27.920;2023-07-13T00:14:56;101096.22;;;33.94;51.11
6942;BME280;3510;43.200;27.920;2023-07-13T00:17:30;101096.75;;;34.36;50.03
6942;BME280;3510;43.200;27.920;2023-07-13T00:20:11;101090.63;;;34.42;49.59
6942;BME280;3510;43.200;27.920;2023-07-13T00:22:51;101081.41;;;34.01;50.69
6942;BME280;3510;43.200;27.920;2023-07-13T00:25:23;101084.00;;;33.98;50.70
6942;BME280;3510;43.200;27.920;2023-07-13T00:28:04;101084.06;;;33.93;51.04
6942;BME280;3510;43.200;27.920;2023-07-13T00:30:45;101078.00;;;33.85;51.19
6942;BME280;3510;43.200;27.920;2023-07-13T00:33:25;101075.06;;;34.28;50.05
6942;BME280;3510;43.200;27.920;2023-07-13T00:35:58;101075.13;;;34.24;50.27
6942;BME280;3510;43.200;27.920;2023-07-13T00:38:35;101071.19;;;34.69;48.92
6942;BME280;3510;43.200;27.920;2023-07-13T00:41:19;101063.63;;;34.40;49.67
6942;BME280;3510;43.200;27.920;2023-07-13T00:43:46;101067.09;;;34.40;49.69
6942;BME280;3510;43.200;27.920;2023-07-13T00:46:17;101062.69;;;34.46;49.70
6942;BME280;3510;43.200;27.920;2023-07-13T00:48:45;101052.44;;;34.23;50.12
6942;BME280;3510;43.200;27.920;2023-07-13T00:51:15;101050.69;;;34.26;50.19
6942;BME280;3510;43.200;27.920;2023-07-13T00:53:56;101046.91;;;33.52;52.06
6942;BME280;3510;43.200;27.920;2023-07-13T00:59:16;101046.59;;;33.94;51.32
6942;BME280;3510;43.200;27.920;2023-07-13T01:01:57;101047.81;;;33.46;52.33
6942;BME280;3510;43.200;27.920;2023-07-13T01:04:27;101041.41;;;33.88;51.03
6942;BME280;3510;43.200;27.920;2023-07-13T01:06:55;101042.94;;;34.17;50.44
6942;BME280;3510;43.200;27.920;2023-07-13T01:09:23;101037.25;;;33.66;51.62
6942;BME280;3510;43.200;27.920;2023-07-13T01:12:03;101038.63;;;34.11;50.70
6942;BME280;3510;43.200;27.920;2023-07-13T01:14:56;101038.44;;;34.30;50.16
6942;BME280;3510;43.200;27.920;2023-07-13T01:17:34;101034.84;;;34.43;49.76
6942;BME280;3510;43.200;27.920;2023-07-13T01:20:04;101030.69;;;34.22;50.48
6942;BME280;3510;43.200;27.920;2023-07-13T01:25:27;101025.59;;;34.07;50.97
6942;BME280;3510;43.200;27.920;2023-07-13T01:27:54;101015.91;;;34.18;50.64
6942;BME280;3510;43.200;27.920;2023-07-13T01:30:21;101012.75;;;33.81;51.48
6942;BME280;3510;43.200;27.920;2023-07-13T01:32:48;101010.13;;;33.82;51.12
6942;BME280;3510;43.200;27.920;2023-07-13T01:35:28;101014.25;;;34.11;50.95
6942;BME280;3510;43.200;27.920;2023-07-13T01:38:09;101011.72;;;34.02;50.80
6942;BME280;3510;43.200;27.920;2023-07-13T01:40:38;101011.16;;;33.64;51.76
6942;BME280;3510;43.200;27.920;2023-07-13T01:43:05;101009.13;;;33.97;51.00
6942;BME280;3510;43.200;27.920;2023-07-13T01:45:32;101008.81;;;34.34;50.22
6942;BME280;3510;43.200;27.920;2023-07-13T01:47:59;101003.03;;;34.00;50.93
6942;BME280;3510;43.200;27.920;2023-07-13T01:50:28;101003.75;;;34.17;50.69
6942;BME280;3510;43.200;27.920;2023-07-13T01:53:08;100995.00;;;34.19;50.46
6942;BME280;3510;43.200;27.920;2023-07-13T01:55:54;101002.81;;;34.21;50.49
6942;BME280;3510;43.200;27.920;2023-07-13T01:58:34;101001.22;;;34.06;50.89
6942;BME280;3510;43.200;27.920;2023-07-13T02:01:15;101000.59;;;33.77;51.42
6942;BME280;3510;43.200;27.920;2023-07-13T02:03:55;100997.06;;;33.81;51.43
6942;BME280;3510;43.200;27.920;2023-07-13T02:06:35;100994.56;;;33.70;51.90
6942;BME280;3510;43.200;27.920;2023-07-13T02:09:16;100999.56;;;33.94;51.33
6942;BME280;3510;43.200;27.920;2023-07-13T02:11:50;101004.06;;;33.80;51.62
6942;BME280;3510;43.200;27.920;2023-07-13T02:14:18;101000.38;;;34.06;50.86
6942;BME280;3510;43.200;27.920;2023-07-13T02:16:58;101000.56;;;33.80;51.66
6942;BME280;3510;43.200;27.920;2023-07-13T02:19:38;101000.38;;;34.06;50.77
6942;BME280;3510;43.200;27.920;2023-07-13T02:22:07;100999.47;;;34.07;50.96
6942;BME280;3510;43.200;27.920;2023-07-13T02:24:47;100994.97;;;34.21;50.28
6942;BME280;3510;43.200;27.920;2023-07-13T02:27:29;100998.34;;;34.34;50.15
6942;BME280;3510;43.200;27.920;2023-07-13T02:30:10;100997.78;;;33.98;50.67
6942;BME280;3510;43.200;27.920;2023-07-13T02:32:51;100998.84;;;33.79;51.09
6942;BME280;3510;43.200;27.920;2023-07-13T02:35:31;100991.63;;;34.10;50.51
6942;BME280;3510;43.200;27.920;2023-07-13T02:38:11;100992.09;;;33.53;52.18
6942;BME280;3510;43.200;27.920;2023-07-13T02:40:52;100988.47;;;33.66;51.78
6942;BME280;3510;43.200;27.920;2023-07-13T02:46:17;100992.09;;;33.53;52.14
6942;BME280;3510;43.200;27.920;2023-07-13T02:48:57;100994.84;;;33.22;53.35
6942;BME280;3510;43.200;27.920;2023-07-13T02:51:37;101005.31;;;33.21;53.04
6942;BME280;3510;43.200;27.920;2023-07-13T02:54:18;100994.88;;;33.24;53.09
6942;BME280;3510;43.200;27.920;2023-07-13T02:56:55;101000.06;;;33.29;53.18
6942;BME280;3510;43.200;27.920;2023-07-13T02:59:35;100993.72;;;33.63;52.12
6942;BME280;3510;43.200;27.920;2023-07-13T03:05:13;100995.66;;;33.35;52.67
6942;BME280;3510;43.200;27.920;2023-07-13T03:07:40;100987.88;;;33.29;53.14
6942;BME280;3510;43.200;27.920;2023-07-13T03:10:20;100991.25;;;33.43;52.52
6942;BME280;3510;43.200;27.920;2023-07-13T03:13:01;100990.66;;;32.98;54.03
6942;BME280;3510;43.200;27.920;2023-07-13T03:15:41;100985.75;;;33.83;52.11
6942;BME280;3510;43.200;27.920;2023-07-13T03:18:22;100985.56;;;34.03;50.79
6942;BME280;3510;43.200;27.920;2023-07-13T03:21:04;100983.81;;;34.04;50.26
6942;BME280;3510;43.200;27.920;2023-07-13T03:23:45;100991.25;;;34.43;49.53
6942;BME280;3510;43.200;27.920;2023-07-13T03:26:13;100995.47;;;34.58;48.82
6942;BME280;3510;43.200;27.920;2023-07-13T03:28:41;100991.16;;;34.54;47.16
6942;BME280;3510;43.200;27.920;2023-07-13T03:31:08;100996.41;;;34.51;47.14
6942;BME280;3510;43.200;27.920;2023-07-13T03:33:35;100991.06;;;35.28;45.94
6942;BME280;3510;43.200;27.920;2023-07-13T03:36:03;101004.94;;;35.33;46.29
6942;BME280;3510;43.200;27.920;2023-07-13T03:38:30;100995.53;;;35.77;44.70
6942;BME280;3510;43.200;27.920;2023-07-13T03:40:58;100996.53;;;35.70;44.45
6942;BME280;3510;43.200;27.920;2023-07-13T03:43:25;100995.97;;;35.53;43.96
6942;BME280;3510;43.200;27.920;2023-07-13T03:45:51;100993.03;;;35.70;44.06
6942;BME280;3510;43.200;27.920;2023-07-13T03:48:17;101006.19;;;36.18;43.57
6942;BME280;3510;43.200;27.920;2023-07-13T03:50:44;100981.78;;;36.61;43.12
6942;BME280;3510;43.200;27.920;2023-07-13T03:53:12;101008.66;;;35.76;44.06
6942;BME280;3510;43.200;27.920;2023-07-13T03:55:41;100944.13;;;35.16;44.75
6942;BME280;3510;43.200;27.920;2023-07-13T03:58:29;101003.31;;;36.31;42.58
6942;BME280;3510;43.200;27.920;2023-07-13T04:00:56;101006.47;;;36.49;41.74
6942;BME280;3510;43.200;27.920;2023-07-13T04:03:24;101006.75;;;36.78;41.69
6942;BME280;3510;43.200;27.920;2023-07-13T04:05:53;101012.34;;;37.44;40.15
6942;BME280;3510;43.200;27.920;2023-07-13T04:08:21;101014.38;;;37.68;38.68
6942;BME280;3510;43.200;27.920;2023-07-13T04:10:48;101013.31;;;38.10;38.58
6942;BME280;3510;43.200;27.920;2023-07-13T04:13:15;101019.19;;;38.52;38.65
6942;BME280;3510;43.200;27.920;2023-07-13T04:15:42;101012.75;;;37.98;38.00
6942;BME280;3510;43.200;27.920;2023-07-13T04:18:23;101006.50;;;37.29;39.90
6942;BME280;3510;43.200;27.920;2023-07-13T04:20:50;101006.69;;;37.22;40.38
6942;BME280;3510;43.200;27.920;2023-07-13T04:23:18;101003.69;;;37.74;39.15
6942;BME280;3510;43.200;27.920;2023-07-13T04:25:53;101003.59;;;37.79;40.19
6942;BME280;3510;43.200;27.920;2023-07-13T04:28:22;101012.47;;;37.73;40.66
6942;BME280;3510;43.200;27.920;2023-07-13T04:30:52;100994.59;;;36.29;43.44
6942;BME280;3510;43.200;27.920;2023-07-13T04:33:20;101013.16;;;37.09;42.39
6942;BME280;3510;43.200;27.920;2023-07-13T04:36:00;101025.25;;;36.72;42.92
6942;BME280;3510;43.200;27.920;2023-07-13T04:38:29;101011.88;;;37.98;40.25
6942;BME280;3510;43.200;27.920;2023-07-13T04:41:14;101023.16;;;38.36;39.15
6942;BME280;3510;43.200;27.920;2023-07-13T04:43:45;101028.19;;;38.11;39.79
6942;BME280;3510;43.200;27.920;2023-07-13T04:46:20;100970.72;;;36.87;41.95
6942;BME280;3510;43.200;27.920;2023-07-13T04:48:48;100957.03;;;35.82;43.72
6942;BME280;3510;43.200;27.920;2023-07-13T04:51:16;101022.91;;;36.12;43.88
6942;BME280;3510;43.200;27.920;2023-07-13T04:53:44;101003.28;;;35.83;44.51
6942;BME280;3510;43.200;27.920;2023-07-13T04:56:16;101022.91;;;36.12;44.43
6942;BME280;3510;43.200;27.920;2023-07-13T04:58:43;100993.75;;;36.29;43.72
6942;BME280;3510;43.200;27.920;2023-07-13T05:01:11;101008.16;;;36.06;44.02
6942;BME280;3510;43.200;27.920;2023-07-13T05:03:39;101023.78;;;36.13;43.71
6942;BME280;3510;43.200;27.920;2023-07-13T05:06:07;101001.31;;;37.26;41.80
6942;BME280;3510;43.200;27.920;2023-07-13T05:08:48;100989.91;;;36.89;41.66
6942;BME280;3510;43.200;27.920;2023-07-13T05:11:20;101004.38;;;37.08;41.65
6942;BME280;3510;43.200;27.920;2023-07-13T05:13:47;100976.47;;;37.04;41.13
6942;BME280;3510;43.200;27.920;2023-07-13T05:16:15;101030.78;;;36.12;43.22
6942;BME280;3510;43.200;27.920;2023-07-13T05:18:45;100983.56;;;36.14;42.95
6942;BME280;3510;43.200;27.920;2023-07-13T05:21:11;101028.47;;;36.42;42.30
6942;BME280;3510;43.200;27.920;2023-07-13T05:23:40;101038.41;;;36.24;42.23
6942;BME280;3510;43.200;27.920;2023-07-13T05:26:09;101036.63;;;36.73;41.37
6942;BME280;3510;43.200;27.920;2023-07-13T05:28:48;100955.28;;;35.81;41.79
6942;BME280;3510;43.200;27.920;2023-07-13T05:31:15;101039.81;;;36.87;41.37
6942;BME280;3510;43.200;27.920;2023-07-13T05:33:43;101035.28;;;36.04;42.23
6942;BME280;3510;43.200;27.920;2023-07-13T05:36:11;100967.69;;;35.70;42.45
6942;BME280;3510;43.200;27.920;2023-07-13T05:38:38;101020.19;;;36.63;41.79
6942;BME280;3510;43.200;27.920;2023-07-13T05:41:06;101025.72;;;36.91;40.64
6942;BME280;3510;43.200;27.920;2023-07-13T05:46:40;101048.59;;;36.86;41.16
6942;BME280;3510;43.200;27.920;2023-07-13T05:49:08;101033.25;;;37.08;40.35
6942;BME280;3510;43.200;27.920;2023-07-13T05:51:34;101053.34;;;36.21;41.87
6942;BME280;3510;43.200;27.920;2023-07-13T05:54:15;101021.69;;;36.75;41.89
6942;BME280;3510;43.200;27.920;2023-07-13T05:56:56;100965.09;;;36.63;41.29
6942;BME280;3510;43.200;27.920;2023-07-13T05:59:36;101047.44;;;36.57;41.76
6942;BME280;3510;43.200;27.920;2023-07-13T06:02:19;100960.56;;;36.71;40.58
6942;BME280;3510;43.200;27.920;2023-07-13T06:04:46;101031.47;;;37.10;41.00
6942;BME280;3510;43.200;27.920;2023-07-13T06:07:19;101026.97;;;36.73;41.33
6942;BME280;3510;43.200;27.920;2023-07-13T06:10:00;100978.31;;;36.60;41.40
6942;BME280;3510;43.200;27.920;2023-07-13T06:12:33;101041.31;;;36.57;41.33
6942;BME280;3510;43.200;27.920;2023-07-13T06:15:01;101043.19;;;36.95;41.46
6942;BME280;3510;43.200;27.920;2023-07-13T06:17:43;100991.44;;;35.61;43.11
6942;BME280;3510;43.200;27.920;2023-07-13T06:20:15;100968.44;;;36.28;42.15
6942;BME280;3510;43.200;27.920;2023-07-13T06:22:56;101051.69;;;35.61;44.70
6942;BME280;3510;43.200;27.920;2023-07-13T06:25:36;101004.50;;;35.64;43.63
6942;BME280;3510;43.200;27.920;2023-07-13T06:28:18;101004.59;;;35.58;43.33
6942;BME280;3510;43.200;27.920;2023-07-13T06:30:59;101003.03;;;36.89;40.76
6942;BME280;3510;43.200;27.920;2023-07-13T06:33:51;101045.56;;;36.64;42.78
6942;BME280;3510;43.200;27.920;2023-07-13T06:36:29;101054.19;;;37.11;42.57
6942;BME280;3510;43.200;27.920;2023-07-13T06:39:09;101023.91;;;36.05;44.52
6942;BME280;3510;43.200;27.920;2023-07-13T06:41:50;101049.38;;;36.45;43.97
6942;BME280;3510;43.200;27.920;2023-07-13T06:44:21;100959.06;;;35.65;44.02
6942;BME280;3510;43.200;27.920;2023-07-13T06:46:48;101048.84;;;36.27;43.87
6942;BME280;3510;43.200;27.920;2023-07-13T06:49:36;101051.91;;;36.51;43.48
6942;BME280;3510;43.200;27.920;2023-07-13T06:52:09;101016.66;;;36.66;43.13
6942;BME280;3510;43.200;27.920;2023-07-13T06:54:37;101030.56;;;36.24;43.62
6942;BME280;3510;43.200;27.920;2023-07-13T06:57:05;101043.19;;;36.94;43.11
6942;BME280;3510;43.200;27.920;2023-07-13T06:59:32;101010.84;;;36.92;42.62
6942;BME280;3510;43.200;27.920;2023-07-13T07:02:00;101042.34;;;37.32;42.62
6942;BME280;3510;43.200;27.920;2023-07-13T07:04:28;101015.88;;;37.43;42.05
6942;BME280;3510;43.200;27.920;2023-07-13T07:06:58;101025.56;;;37.38;42.02
6942;BME280;3510;43.200;27.920;2023-07-13T07:09:25;101045.09;;;36.86;43.48
6942;BME280;3510;43.200;27.920;2023-07-13T07:11:55;101045.56;;;37.45;42.54
6942;BME280;3510;43.200;27.920;2023-07-13T07:14:36;100979.00;;;35.75;44.67
6942;BME280;3510;43.200;27.920;2023-07-13T07:17:07;101048.63;;;36.85;43.45
6942;BME280;3510;43.200;27.920;2023-07-13T07:19:38;100990.16;;;36.33;43.77
6942;BME280;3510;43.200;27.920;2023-07-13T07:22:22;101046.09;;;36.35;44.85
6942;BME280;3510;43.200;27.920;2023-07-13T07:24:52;101002.16;;;36.48;44.46
6942;BME280;3510;43.200;27.920;2023-07-13T07:27:20;101019.44;;;37.00;43.49
6942;BME280;3510;43.200;27.920;2023-07-13T07:29:46;101043.19;;;36.92;44.30
6942;BME280;3510;43.200;27.920;2023-07-13T07:32:13;101037.63;;;37.48;42.13
6942;BME280;3510;43.200;27.920;2023-07-13T07:34:54;101034.59;;;37.27;42.75
6942;BME280;3510;43.200;27.920;2023-07-13T07:37:22;101002.13;;;36.90;43.52
6942;BME280;3510;43.200;27.920;2023-07-13T07:39:51;101017.97;;;36.87;43.97
6942;BME280;3510;43.200;27.920;2023-07-13T07:42:32;101036.72;;;36.67;44.56
6942;BME280;3510;43.200;27.920;2023-07-13T07:45:00;101004.75;;;36.49;44.52
6942;BME280;3510;43.200;27.920;2023-07-13T07:47:28;100973.31;;;36.45;44.35
6942;BME280;3510;43.200;27.920;2023-07-13T07:49:55;101045.09;;;36.86;44.61
6942;BME280;3510;43.200;27.920;2023-07-13T07:52:24;101036.03;;;37.02;43.61
6942;BME280;3510;43.200;27.920;2023-07-13T07:54:52;101027.44;;;36.94;43.86
6942;BME280;3510;43.200;27.920;2023-07-13T07:57:19;101046.38;;;37.08;44.07
6942;BME280;3510;43.200;27.920;2023-07-13T07:59:47;101044.53;;;36.71;44.94
6942;BME280;3510;43.200;27.920;2023-07-13T08:02:14;101002.06;;;36.93;43.53
6942;BME280;3510;43.200;27.920;2023-07-13T08:04:41;100972.31;;;36.53;44.27
6942;BME280;3510;43.200;27.920;2023-07-13T08:07:09;101050.75;;;37.49;43.59
6942;BME280;3510;43.200;27.920;2023-07-13T08:41:37;101041.53;;;36.88;44.77
6942;BME280;3510;43.200;27.920;2023-07-13T08:44:22;101038.00;;;38.04;42.45
6942;BME280;3510;43.200;27.920;2023-07-13T08:46:55;101047.03;;;37.58;43.01
6942;BME280;3510;43.200;27.920;2023-07-13T08:49:39;100992.31;;;38.08;40.96
6942;BME280;3510;43.200;27.920;2023-07-13T08:52:14;100971.00;;;37.86;41.21
6942;BME280;3510;43.200;27.920;2023-07-13T09:00:34;101030.53;;;37.87;41.69
6942;BME280;3510;43.200;27.920;2023-07-13T09:03:23;101032.34;;;38.52;40.66
6942;BME280;3510;43.200;27.920;2023-07-13T09:05:53;100981.19;;;37.64;42.30
6942;BME280;3510;43.200;27.920;2023-07-13T09:08:38;100998.38;;;37.40;43.00
6942;BME280;3510;43.200;27.920;2023-07-13T09:11:32;100986.06;;;37.80;42.06
6942;BME280;3510;43.200;27.920;2023-07-13T09:14:11;101026.06;;;37.55;43.02
6942;BME280;3510;43.200;27.920;2023-07-13T09:16:49;101030.69;;;37.45;43.02
6942;BME280;3510;43.200;27.920;2023-07-13T09:19:22;101006.91;;;37.86;42.39
6942;BME280;3510;43.200;27.920;2023-07-13T09:21:59;100956.06;;;37.15;43.24
6942;BME280;3510;43.200;27.920;2023-07-13T09:24:52;101022.91;;;37.42;43.11
6942;BME280;3510;43.200;27.920;2023-07-13T09:27:38;101032.50;;;37.79;43.09
6942;BME280;3510;43.200;27.920;2023-07-13T09:30:27;100988.72;;;37.05;43.61
6942;BME280;3510;43.200;27.920;2023-07-13T09:32:59;100993.75;;;37.14;43.65
6942;BME280;3510;43.200;27.920;2023-07-13T09:35:30;101032.16;;;37.57;43.50
6942;BME280;3510;43.200;27.920;2023-07-13T09:38:13;100988.88;;;38.06;42.52
6942;BME280;3510;43.200;27.920;2023-07-13T09:40:56;101011.75;;;37.68;42.95
6942;BME280;3510;43.200;27.920;2023-07-13T09:43:26;101027.91;;;37.53;43.42
6942;BME280;3510;43.200;27.920;2023-07-13T09:45:55;101021.94;;;37.45;43.97
6942;BME280;3510;43.200;27.920;2023-07-13T09:48:34;101006.84;;;37.90;43.20
6942;BME280;3510;43.200;27.920;2023-07-13T09:53:50;101026.06;;;38.25;43.06
6942;BME280;3510;43.200;27.920;2023-07-13T09:56:20;100992.72;;;37.93;43.16
6942;BME280;3510;43.200;27.920;2023-07-13T09:58:49;101019.59;;;38.04;43.06
6942;BME280;3510;43.200;27.920;2023-07-13T10:01:16;100980.69;;;37.48;44.58
6942;BME280;3510;43.200;27.920;2023-07-13T10:04:03;101019.19;;;38.19;43.34
6942;BME280;3510;43.200;27.920;2023-07-13T10:07:04;100940.59;;;37.74;44.18
6942;BME280;3510;43.200;27.920;2023-07-13T10:09:37;100894.44;;;36.94;44.86
6942;BME280;3510;43.200;27.920;2023-07-13T10:20:06;100990.22;;;37.88;43.38
6942;BME280;3510;43.200;27.920;2023-07-13T10:22:43;100935.97;;;37.84;43.29
6942;BME280;3510;43.200;27.920;2023-07-13T11:09:36;100964.47;;;38.32;42.11
6942;BME280;3510;43.200;27.920;2023-07-13T11:12:10;100966.34;;;37.96;42.75
6942;BME280;3510;43.200;27.920;2023-07-13T11:15:10;100974.81;;;38.07;42.45
6942;BME280;3510;43.200;27.920;2023-07-13T11:17:47;100970.75;;;37.95;43.12
6942;BME280;3510;43.200;27.920;2023-07-13T11:20:30;100973.97;;;38.07;42.51
6942;BME280;3510;43.200;27.920;2023-07-13T11:23:17;100961.72;;;38.38;42.66
6942;BME280;3510;43.200;27.920;2023-07-13T11:25:47;100954.25;;;38.21;42.00
6942;BME280;3510;43.200;27.920;2023-07-13T11:28:21;100923.88;;;38.11;41.20
6942;BME280;3510;43.200;27.920;2023-07-13T11:31:00;100971.34;;;38.38;41.14
6942;BME280;3510;43.200;27.920;2023-07-13T11:33:31;100972.72;;;38.51;40.84
6942;BME280;3510;43.200;27.920;2023-07-13T11:36:14;100951.94;;;38.11;40.70
6942;BME280;3510;43.200;27.920;2023-07-13T11:38:43;100916.44;;;38.57;39.46
6942;BME280;3510;43.200;27.920;2023-07-13T11:41:17;100916.78;;;39.55;37.62
6942;BME280;3510;43.200;27.920;2023-07-13T11:43:45;100945.84;;;39.79;37.56
6942;BME280;3510;43.200;27.920;2023-07-13T11:46:18;100941.56;;;40.94;35.01
6942;BME280;3510;43.200;27.920;2023-07-13T11:48:47;100969.91;;;40.68;36.05
6942;BME280;3510;43.200;27.920;2023-07-13T11:51:21;100882.50;;;40.05;36.55
6942;BME280;3510;43.200;27.920;2023-07-13T11:53:54;100950.94;;;41.46;34.90
6942;BME280;3510;43.200;27.920;2023-07-13T11:56:24;100919.38;;;42.03;33.73
6942;BME280;3510;43.200;27.920;2023-07-13T11:58:57;100923.00;;;42.00;33.75
6942;BME280;3510;43.200;27.920;2023-07-13T12:01:27;100933.06;;;41.51;34.72
6942;BME280;3510;43.200;27.920;2023-07-13T12:03:58;100961.84;;;42.39;33.34
6942;BME280;3510;43.200;27.920;2023-07-13T12:06:28;100927.31;;;42.78;32.78
6942;BME280;3510;43.200;27.920;2023-07-13T12:08:57;100946.84;;;43.66;31.93
6942;BME280;3510;43.200;27.920;2023-07-13T12:11:41;100958.63;;;42.70;32.80
6942;BME280;3510;43.200;27.920;2023-07-13T12:14:13;100962.97;;;42.52;33.46
6942;BME280;3510;43.200;27.920;2023-07-13T12:16:40;100961.66;;;42.99;32.66
6942;BME280;3510;43.200;27.920;2023-07-13T12:19:15;100904.03;;;42.85;32.17
6942;BME280;3510;43.200;27.920;2023-07-13T12:21:44;100944.03;;;43.69;30.82
6942;BME280;3510;43.200;27.920;2023-07-13T12:24:16;100876.25;;;41.80;33.48
6942;BME280;3510;43.200;27.920;2023-07-13T12:26:50;100938.16;;;42.36;33.11
6942;BME280;3510;43.200;27.920;2023-07-13T12:29:18;100953.03;;;42.58;33.17
6942;BME280;3510;43.200;27.920;2023-07-13T12:31:48;100910.22;;;43.03;32.26
6942;BME280;3510;43.200;27.920;2023-07-13T12:34:17;100851.75;;;42.52;32.57
6942;BME280;3510;43.200;27.920;2023-07-13T12:36:47;100909.28;;;43.58;31.73
6942;BME280;3510;43.200;27.920;2023-07-13T12:39:17;100944.41;;;42.90;32.36
6942;BME280;3510;43.200;27.920;2023-07-13T12:41:47;100905.03;;;41.88;33.59
6942;BME280;3510;43.200;27.920;2023-07-13T12:46:54;100925.06;;;42.71;33.24
6942;BME280;3510;43.200;27.920;2023-07-13T12:49:26;100914.59;;;43.04;32.73
6942;BME280;3510;43.200;27.920;2023-07-13T12:51:58;100896.34;;;42.62;32.97
6942;BME280;3510;43.200;27.920;2023-07-13T12:54:28;100922.41;;;42.52;33.44
6942;BME280;3510;43.200;27.920;2023-07-13T12:57:13;100924.56;;;42.44;33.20
6942;BME280;3510;43.200;27.920;2023-07-13T12:59:44;100877.63;;;42.84;32.89
6942;BME280;3510;43.200;27.920;2023-07-13T13:02:26;100852.50;;;42.18;33.86
6942;BME280;3510;43.200;27.920;2023-07-13T13:04:57;100887.47;;;41.87;34.10
6942;BME280;3510;43.200;27.920;2023-07-13T13:07:28;100872.97;;;41.34;35.35
6942;BME280;3510;43.200;27.920;2023-07-13T13:09:56;100866.84;;;40.92;35.29
6942;BME280;3510;43.200;27.920;2023-07-13T13:12:24;100848.13;;;40.30;36.95
6942;BME280;3510;43.200;27.920;2023-07-13T13:14:52;100884.78;;;39.66;37.97
6942;BME280;3510;43.200;27.920;2023-07-13T13:17:32;100899.22;;;39.81;38.33
6942;BME280;3510;43.200;27.920;2023-07-13T13:19:59;100890.69;;;39.48;38.56
6942;BME280;3510;43.200;27.920;2023-07-13T13:22:26;100862.84;;;39.40;39.06
6942;BME280;3510;43.200;27.920;2023-07-13T13:24:57;100876.72;;;39.19;39.60
6942;BME280;3510;43.200;27.920;2023-07-13T13:27:25;100861.13;;;39.13;39.03
6942;BME280;3510;43.200;27.920;2023-07-13T13:29:54;100885.13;;;39.04;39.48
6942;BME280;3510;43.200;27.920;2023-07-13T13:32:26;100861.31;;;38.79;39.35
6942;BME280;3510;43.200;27.920;2023-07-13T13:34:53;100893.19;;;38.99;40.20
6942;BME280;3510;43.200;27.920;2023-07-13T13:37:22;100839.06;;;38.62;39.61
6942;BME280;3510;43.200;27.920;2023-07-13T13:39:51;100873.13;;;38.95;40.01
6942;BME280;3510;43.200;27.920;2023-07-13T13:42:19;100846.19;;;39.13;39.00
6942;BME280;3510;43.200;27.920;2023-07-13T13:44:50;100840.53;;;40.45;36.11
6942;BME280;3510;43.200;27.920;2023-07-13T13:47:30;100878.03;;;41.19;35.50
6942;BME280;3510;43.200;27.920;2023-07-13T13:49:58;100876.94;;;41.65;34.50
6942;BME280;3510;43.200;27.920;2023-07-13T13:52:25;100889.16;;;42.46;33.13
6942;BME280;3510;43.200;27.920;2023-07-13T13:54:52;100826.97;;;42.17;33.06
6942;BME280;3510;43.200;27.920;2023-07-13T13:57:24;100883.44;;;41.97;33.94
6942;BME280;3510;43.200;27.920;2023-07-13T13:59:53;100883.25;;;42.59;33.04
6942;BME280;3510;43.200;27.920;2023-07-13T14:02:24;100885.06;;;43.12;32.47
6942;BME280;3510;43.200;27.920;2023-07-13T14:04:55;100871.38;;;42.11;33.43
6942;BME280;3510;43.200;27.920;2023-07-13T14:07:25;100858.28;;;42.08;33.78
6942;BME280;3510;43.200;27.920;2023-07-13T14:09:52;100841.56;;;42.26;33.51
6942;BME280;3510;43.200;27.920;2023-07-13T14:12:22;100884.00;;;42.43;33.33
6942;BME280;3510;43.200;27.920;2023-07-13T14:14:52;100885.69;;;42.06;33.90
6942;BME280;3510;43.200;27.920;2023-07-13T14:17:22;100881.19;;;42.46;33.17
6942;BME280;3510;43.200;27.920;2023-07-13T14:19:52;100872.28;;;43.20;32.19
6942;BME280;3510;43.200;27.920;2023-07-13T14:22:25;100878.59;;;43.35;31.56
6942;BME280;3510;43.200;27.920;2023-07-13T14:24:53;100873.38;;;42.62;32.66
6942;BME280;3510;43.200;27.920;2023-07-13T14:27:22;100844.44;;;42.94;31.79
6942;BME280;3510;43.200;27.920;2023-07-13T14:29:53;100878.28;;;43.23;31.71
6942;BME280;3510;43.200;27.920;2023-07-13T14:32:19;100877.78;;;42.98;32.33
6942;BME280;3510;43.200;27.920;2023-07-13T14:34:46;100880.94;;;43.06;31.81
6942;BME280;3510;43.200;27.920;2023-07-13T14:37:14;100882.28;;;42.78;32.22
6942;BME280;3510;43.200;27.920;2023-07-13T14:39:52;100865.13;;;43.22;30.94
6942;BME280;3510;43.200;27.920;2023-07-13T14:42:32;100865.78;;;42.54;32.31
6942;BME280;3510;43.200;27.920;2023-07-13T14:45:12;100867.97;;;43.00;32.02
6942;BME280;3510;43.200;27.920;2023-07-13T14:47:40;100885.22;;;42.91;32.29
6942;BME280;3510;43.200;27.920;2023-07-13T14:50:15;100875.38;;;42.93;31.67
6942;BME280;3510;43.200;27.920;2023-07-13T14:52:43;100864.97;;;43.25;31.20
6942;BME280;3510;43.200;27.920;2023-07-13T14:55:24;100851.59;;;43.61;31.04
6942;BME280;3510;43.200;27.920;2023-07-13T14:58:05;100882.19;;;44.17;29.35
6942;BME280;3510;43.200;27.920;2023-07-13T15:00:42;100796.19;;;42.34;31.10
6942;BME280;3510;43.200;27.920;2023-07-13T15:03:17;100880.78;;;43.27;30.96
6942;BME280;3510;43.200;27.920;2023-07-13T15:05:47;100861.00;;;43.51;30.79
6942;BME280;3510;43.200;27.920;2023-07-13T15:08:15;100858.13;;;42.67;31.49
6942;BME280;3510;43.200;27.920;2023-07-13T15:10:42;100869.47;;;42.88;31.69
6942;BME280;3510;43.200;27.920;2023-07-13T15:13:18;100875.06;;;42.63;31.46
6942;BME280;3510;43.200;27.920;2023-07-13T15:15:48;100832.75;;;42.06;32.19
6942;BME280;3510;43.200;27.920;2023-07-13T15:18:19;100852.31;;;42.78;31.35
6942;BME280;3510;43.200;27.920;2023-07-13T15:20:48;100877.91;;;42.41;31.99
6942;BME280;3510;43.200;27.920;2023-07-13T15:23:16;100879.03;;;42.17;32.79
6942;BME280;3510;43.200;27.920;2023-07-13T15:25:44;100801.09;;;41.26;33.01